EST,Max TemperatureF,Mean TemperatureF,Min TemperatureF,Max Dew PointF,MeanDew PointF,Min DewpointF,Max Humidity, Mean Humidity, Min Humidity, Max Sea Level PressureIn, Mean Sea Level PressureIn, Min Sea Level PressureIn, Max VisibilityMiles, Mean VisibilityMiles, Min VisibilityMiles, Max Wind SpeedMPH, Mean Wind SpeedMPH, Max Gust SpeedMPH,PrecipitationIn, CloudCover, Events, WindDirDegrees
2013-1-1,50,48,46,48,43,26,100,85,42,30.10,30.03,29.95,10,5,2,12,5,,0.43,7,Rain,246
2013-1-2,53,50,46,48,44,38,100,81,58,30.14,30.02,29.92,10,8,2,12,2,,0.08,7,Rain,42
2013-1-3,45,41,37,43,38,23,100,84,55,30.30,30.18,30.11,10,6,1,12,6,,0.00,6,,50
2013-1-4,51,40,30,26,22,19,75,50,33,30.36,30.31,30.25,10,10,10,14,5,,0.00,0,,310
2013-1-5,46,38,30,33,22,17,73,49,34,30.41,30.33,30.24,10,10,9,9,4,,0.01,2,Rain,232
2013-1-6,54,46,39,39,35,27,79,68,53,30.24,30.16,30.06,10,10,9,13,7,,0.01,4,Rain,252
2013-1-7,53,44,36,29,26,24,70,52,32,30.42,30.35,30.22,10,10,10,12,4,,0.00,0,,46
2013-1-8,52,44,35,38,33,27,76,63,52,30.46,30.40,30.36,10,10,10,9,4,,0.00,6,,43
2013-1-9,64,56,48,51,46,38,81,68,58,30.45,30.41,30.38,10,10,10,7,2,,0.00,4,,10
2013-1-10,68,59,50,54,50,47,92,74,52,30.49,30.42,30.34,10,9,6,10,3,,0.01,3,Rain,64
2013-1-11,57,54,50,54,49,48,96,93,88,30.35,30.24,30.18,10,3,2,10,7,,0.32,8,Rain,48
2013-1-12,73,62,52,62,57,51,100,89,57,30.18,30.14,30.09,10,5,0,12,3,,0.01,3,Fog-Rain,220
2013-1-13,70,64,57,61,58,55,96,85,68,30.16,30.10,30.06,10,9,2,12,4,20,0.00,5,,233
2013-1-14,66,63,60,63,61,59,100,93,81,30.13,30.09,30.05,10,6,2,10,3,,0.34,8,Rain,210
2013-1-15,63,54,46,61,51,43,97,92,87,30.14,30.09,30.05,10,7,2,14,5,22,0.21,8,Rain,58
2013-1-16,52,48,44,50,46,43,96,93,88,30.04,30.01,29.97,10,7,2,10,5,,0.40,8,Rain,50
2013-1-17,53,46,39,52,46,35,100,92,81,30.22,29.92,29.73,10,5,1,26,8,41,1.92,8,Rain,38
2013-1-18,53,44,35,31,23,18,73,48,27,30.51,30.43,30.25,10,10,10,16,9,24,0.00,0,,41
2013-1-19,54,41,28,29,24,19,85,53,25,30.49,30.36,30.20,10,10,10,12,3,,0.00,0,,230
2013-1-20,64,50,37,33,28,25,65,45,28,30.18,30.11,30.04,10,10,10,10,7,18,0.00,0,,262
2013-1-21,62,48,34,33,24,12,79,44,21,30.08,30.04,29.97,10,10,10,18,5,28,0.00,0,,260
2013-1-22,46,38,30,15,11,6,48,35,20,30.27,30.17,30.03,10,10,10,13,7,18,0.00,0,,350
2013-1-23,52,39,26,26,16,6,51,40,29,30.36,30.25,30.12,10,10,10,14,4,21,0.00,0,Rain,249
2013-1-24,52,41,28,33,18,-3,65,39,15,30.49,30.21,30.01,10,10,10,18,13,26,0.00,0,,18
2013-1-25,30,27,24,25,16,5,86,66,37,30.51,30.30,30.13,10,8,2,9,5,,0.05,6,Rain,240
2013-1-26,53,40,28,35,29,25,100,77,40,30.34,30.18,30.08,10,6,0,9,4,,0.00,1,Fog,326
2013-1-27,46,38,30,29,28,26,89,67,49,30.56,30.48,30.35,10,10,7,10,7,,0.00,4,,56
2013-1-28,52,46,41,43,36,27,93,69,53,30.46,30.36,30.28,10,9,4,10,4,,0.00,7,,225
2013-1-29,70,56,43,58,52,41,93,79,61,30.28,30.17,30.01,10,8,3,14,6,23,0.00,5,,230
2013-1-30,71,60,48,63,58,43,94,83,64,29.99,29.67,29.49,10,8,1,28,15,40,1.14,8,Rain-Thunderstorm,202
2013-1-31,50,43,36,42,24,15,83,50,25,30.08,29.91,29.62,10,10,10,24,17,32,0.00,1,,251